Latest Weather Observations for Hamilton Island

IDQ60801

Issued at 2:05 am EST Sunday 21 September 2014 (issued every 30 minutes, with the page automatically refreshed every 10 minutes)

About weather observations | Map of weather stations | Latest weather observations for QLD | Other Formats
Station Details ID: 033106 Name: HAMILTON ISLAND AIRPORT Lat: -20.37 Lon: 148.95 Height: 58.66 m
Data from the previous 72 hours. | See also: Recent months at Hamilton Island
Date/Time
EST
Temp
°C
App
Temp
°C
Dew
Point
Rel
Hum
%
Delta-T
°C
Wind Press
QNH
hPa
Press
MSL
hPa
Rain
since 9 am
mm
Dir
 
Spd
km/h
Gust
km/h
Spd
kts
Gust
kts
21/02:00am 21.9 20.3 18.3 80 2.3 ESE 24 28 13 15 1017.9 - 0.0
21/01:30am 21.9 20.4 18.5 81 2.1 ESE 24 28 13 15 1018.3 - 0.0
21/01:00am 22.0 20.0 18.2 79 2.4 ESE 26 30 14 16 1018.6 - 0.0
21/12:30am 22.0 20.0 18.4 80 2.3 E 26 32 14 17 1018.9 - 0.0
21/12:00am 22.0 19.6 18.2 79 2.4 ESE 28 32 15 17 1019.2 1019.0 0.0
 
Date/Time
EST
Temp
°C
App
Temp
°C
Dew
Point
Rel
Hum
%
Delta-T
°C
Wind Press
QNH
hPa
Press
MSL
hPa
Rain
since 9 am
mm
Dir
 
Spd
km/h
Gust
km/h
Spd
kts
Gust
kts
20/11:30pm 22.0 19.1 18.0 78 2.5 E 30 33 16 18 1019.4 - 0.0
20/11:00pm 22.0 19.0 17.8 77 2.6 E 30 35 16 19 1019.4 - 0.0
20/10:30pm 22.1 18.5 17.7 76 2.7 E 33 39 18 21 1019.2 - 0.0
20/10:00pm 22.3 19.8 18.1 77 2.6 E 28 32 15 17 1019.5 - 0.0
20/09:30pm 22.3 19.8 18.1 77 2.6 E 28 33 15 18 1019.5 - 0.0
20/09:00pm 22.3 18.6 16.1 68 3.7 E 30 35 16 19 1019.0 1018.8 0.0
20/08:30pm 22.3 19.2 17.4 74 3.0 E 30 35 16 19 1018.8 - 0.0
20/08:00pm 22.2 18.8 17.8 76 2.7 E 32 39 17 21 1018.6 - 0.0
20/07:30pm 22.3 18.6 17.4 74 3.0 E 33 39 18 21 1018.2 - 0.0
20/07:00pm 22.3 18.5 18.1 77 2.6 E 35 41 19 22 1017.8 - 0.0
20/06:30pm 22.3 19.2 18.5 79 2.4 E 32 39 17 21 1017.3 - 0.0
20/06:00pm 22.3 19.1 18.1 77 2.6 E 32 37 17 20 1016.6 1016.4 0.0
20/05:30pm 22.5 19.7 18.3 77 2.6 E 30 37 16 20 1016.1 - 0.0
20/05:00pm 22.5 19.1 17.6 74 3.0 E 32 37 17 20 1015.7 - 0.0
20/04:30pm 22.6 20.7 18.6 78 2.5 E 26 32 14 17 1015.2 - 0.0
20/04:00pm 22.8 20.2 18.6 77 2.7 E 30 35 16 19 1014.8 - 0.0
20/03:30pm 23.0 19.8 18.5 76 2.8 E 33 43 18 23 1014.7 - 0.0
20/03:00pm 23.1 19.3 18.0 73 3.2 E 35 43 19 23 1014.6 1014.4 0.0
20/02:30pm 23.7 19.5 18.1 71 3.5 E 37 46 20 25 1014.8 - 0.0
20/02:00pm 23.6 20.2 17.8 70 3.6 E 32 37 17 20 1015.3 - 0.0
20/01:30pm 23.6 21.7 18.5 73 3.2 E 26 30 14 16 1015.9 - 0.0
20/01:00pm 24.2 23.0 18.4 70 3.7 ESE 22 24 12 13 1016.5 - 0.0
20/12:30pm 24.5 23.3 18.4 69 3.9 ESE 22 24 12 13 1016.9 - 0.0
20/12:00pm 24.3 24.5 18.5 70 3.7 ESE 15 17 8 9 1017.3 1017.1 0.0
20/11:30am 24.4 24.9 18.3 69 3.9 ESE 13 17 7 9 1017.6 - 0.0
20/11:00am 24.0 24.1 18.4 71 3.5 SE 15 17 8 9 1018.3 - 0.0
20/10:30am 23.9 24.4 18.3 71 3.5 SE 13 15 7 8 1018.6 - 0.0
20/10:00am 24.5 25.1 17.7 66 4.3 SSE 11 13 6 7 1018.9 - 0.0
20/09:30am 25.1 26.0 18.3 66 4.3 SSE 11 15 6 8 1019.2 - 0.0
20/09:00am 24.1 25.1 17.8 68 3.9 SE 9 13 5 7 1019.4 1019.1 0.0
20/08:30am 23.5 24.4 17.5 69 3.7 SE 9 11 5 6 1019.2 - 0.0
20/08:00am 23.3 25.1 18.4 74 3.1 ESE 6 9 3 5 1019.0 - 0.0
20/07:30am 21.1 23.7 17.5 80 2.2 CALM 0 0 0 0 1018.7 - 0.0
20/07:00am 20.4 23.0 17.6 84 1.7 CALM 0 0 0 0 1018.3 - 0.0
20/06:30am 19.9 21.5 18.2 90 1.1 W 7 11 4 6 1018.0 - 0.0
20/06:00am 19.7 21.9 18.4 92 0.8 W 4 7 2 4 1017.6 1017.4 0.0
20/05:30am 19.6 22.5 18.1 91 0.9 CALM 0 0 0 0 1017.4 - 0.0
20/05:00am 19.6 21.3 18.1 91 0.9 NW 6 7 3 4 1017.1 - 0.0
20/04:30am 19.8 21.5 18.1 90 1.1 W 6 7 3 4 1016.8 - 0.0
20/04:00am 19.9 21.3 17.9 88 1.2 WSW 7 7 4 4 1016.7 - 0.0
20/03:30am 20.3 21.7 17.3 83 1.8 WNW 6 7 3 4 1016.7 - 0.0
20/03:00am 20.3 21.9 17.9 86 1.5 WNW 6 7 3 4 1016.8 1016.6 0.0
20/02:30am 20.2 22.2 17.8 86 1.5 WNW 4 9 2 5 1017.1 - 0.0
20/02:00am 20.1 22.8 17.7 86 1.5 CALM 0 0 0 0 1017.4 - 0.0
20/01:30am 20.3 23.0 17.7 85 1.6 CALM 0 0 0 0 1017.6 - 0.0
20/01:00am 20.8 22.0 17.4 81 2.1 NNE 7 13 4 7 1017.8 - 0.0
20/12:30am 20.8 20.8 17.2 80 2.2 NE 13 19 7 10 1018.2 - 0.0
20/12:00am 20.7 20.4 17.3 81 2.1 ENE 15 17 8 9 1018.5 1018.3 0.0
 
Date/Time
EST
Temp
°C
App
Temp
°C
Dew
Point
Rel
Hum
%
Delta-T
°C
Wind Press
QNH
hPa
Press
MSL
hPa
Rain
since 9 am
mm
Dir
 
Spd
km/h
Gust
km/h
Spd
kts
Gust
kts
19/11:30pm 20.8 20.9 17.4 81 2.1 ENE 13 17 7 9 1018.8 - 0.0
19/11:00pm 21.0 21.1 17.4 80 2.2 ENE 13 15 7 8 1018.8 - 0.0
19/10:30pm 21.0 21.5 17.4 80 2.2 ENE 11 15 6 8 1018.7 - 0.0
19/10:00pm 21.3 21.4 17.5 79 2.3 ENE 13 17 7 9 1018.9 - 0.0
19/09:30pm 21.4 21.1 17.4 78 2.5 ENE 15 19 8 10 1019.1 - 0.0
19/09:00pm 21.2 21.3 17.4 79 2.3 ENE 13 17 7 9 1019.0 1018.8 0.0
19/08:42pm 21.4 21.1 17.4 78 2.5 ENE 15 19 8 10 1019.0 - 0.0
19/08:30pm 21.5 21.3 17.7 79 2.4 E 15 19 8 10 1018.9 - 0.0
19/08:20pm 21.5 21.0 17.7 79 2.4 E 17 24 9 13 1018.8 - 0.0
19/08:00pm 21.5 19.9 17.5 78 2.5 E 22 28 12 15 1018.5 - 0.0
19/07:30pm 21.5 19.9 17.5 78 2.5 E 22 26 12 14 1018.3 - 0.0
19/07:00pm 21.5 19.5 17.5 78 2.5 E 24 28 13 15 1018.0 - 0.0
19/06:30pm 21.5 19.8 17.3 77 2.6 E 22 26 12 14 1017.4 - 0.0
19/06:00pm 21.5 20.3 17.5 78 2.5 ESE 20 24 11 13 1017.0 1016.8 0.0
19/05:30pm 21.5 19.9 17.5 78 2.5 ESE 22 26 12 14 1016.8 - 0.0
19/05:00pm 21.9 20.7 17.5 76 2.7 ESE 20 24 11 13 1016.6 - 0.0
19/04:30pm 22.3 21.5 17.9 76 2.7 ESE 19 20 10 11 1016.4 - 0.0
19/04:00pm 22.7 21.9 18.0 75 2.9 E 19 20 10 11 1016.3 - 0.0
19/03:30pm 22.5 21.5 17.6 74 3.0 E 19 22 10 12 1016.2 - 0.0
19/03:00pm 22.8 22.2 17.5 72 3.3 E 17 20 9 11 1016.3 1016.1 0.0
19/02:30pm 23.2 22.0 17.4 70 3.6 E 20 24 11 13 1016.5 - 0.0
19/02:00pm 23.7 22.9 18.1 71 3.5 E 19 20 10 11 1016.8 - 0.0
19/01:30pm 23.3 22.6 18.2 73 3.2 SSE 19 22 10 12 1017.0 - 0.0
19/01:11pm 23.4 22.7 18.3 73 3.2 SE 19 24 10 13 1017.5 - 0.0
19/01:00pm 23.6 22.8 18.5 73 3.2 SE 20 22 11 12 1017.6 - 0.0
19/12:37pm 23.4 22.5 18.1 72 3.3 SSE 20 24 11 13 1018.0 - 0.0
19/12:30pm 24.1 23.2 19.0 73 3.3 SSE 22 28 12 15 1018.2 - 0.0
19/12:00pm 23.5 22.5 18.8 75 3.0 SSE 22 26 12 14 1018.5 1018.3 0.0
19/11:35am 22.9 21.6 18.2 75 2.9 SSE 22 26 12 14 1019.0 - 0.0
19/11:30am 23.1 21.9 18.4 75 3.0 SSE 22 26 12 14 1019.0 - 0.0
19/11:18am 23.3 22.5 18.4 74 3.1 SSE 20 26 11 14 1019.5 - 0.0
19/11:00am 23.2 22.0 18.5 75 3.0 SSE 22 26 12 14 1019.8 - 0.0
19/10:30am 23.3 22.6 18.6 75 3.0 SSE 20 24 11 13 1020.2 - 0.0
19/10:00am 23.1 22.4 18.6 76 2.8 SSE 20 26 11 14 1020.3 - 0.0
19/09:30am 23.2 22.4 18.5 75 3.0 SSE 20 24 11 13 1020.4 - 0.0
19/09:00am 23.0 22.2 18.5 76 2.8 SSE 20 24 11 13 1020.4 1020.1 0.0
19/08:57am 23.8 23.5 19.5 77 2.8 SSE 20 24 11 13 1020.4 - 0.0
19/08:30am 22.8 21.8 18.8 78 2.5 SSE 22 28 12 15 1020.3 - 0.0
19/08:00am 21.9 20.7 18.3 80 2.3 SSE 22 28 12 15 1020.2 - 0.0
19/07:30am 21.7 20.1 18.3 81 2.1 SSE 24 28 13 15 1019.8 - 0.0
19/07:13am 21.2 19.2 18.2 83 1.9 SSE 26 30 14 16 1019.6 - 0.0
19/07:00am 21.2 19.1 18.0 82 2.0 SSE 26 30 14 16 1019.4 - 0.0
19/06:43am 20.9 19.0 18.5 86 1.5 SSE 26 30 14 16 1019.1 - 0.0
19/06:30am 20.7 19.6 18.6 88 1.3 SSE 22 28 12 15 1018.9 - 0.0
19/06:26am 20.5 19.3 18.4 88 1.3 SSE 22 28 12 15 1018.9 - 0.0
19/06:00am 20.5 19.7 18.4 88 1.3 SSE 20 24 11 13 1018.5 1018.3 0.0
19/05:30am 20.5 19.2 17.3 82 2.0 SE 20 22 11 12 1018.3 - 0.0
19/05:00am 20.4 19.3 17.2 82 2.0 SE 19 20 10 11 1018.0 - 0.0
19/04:51am 20.3 19.5 17.1 82 2.0 SE 17 20 9 11 1017.9 - 0.0
19/04:30am 20.5 19.3 17.1 81 2.1 SE 19 22 10 12 1017.7 - 0.0
19/04:00am 20.5 19.3 17.5 83 1.8 SE 20 24 11 13 1017.5 - 0.0
19/03:30am 20.4 19.4 17.6 84 1.7 SE 19 20 10 11 1017.5 - 0.0
19/03:02am 20.3 19.3 17.5 84 1.7 SE 19 22 10 12 1017.5 - 0.0
19/03:00am 20.3 19.3 17.5 84 1.7 SE 19 22 10 12 1017.5 1017.3 0.0
19/02:30am 20.4 19.3 17.4 83 1.8 SE 19 20 10 11 1017.8 - 0.0
19/02:00am 20.6 19.6 17.6 83 1.8 SE 19 22 10 12 1017.9 - 0.0
19/01:30am 20.5 19.2 17.3 82 2.0 SE 20 24 11 13 1018.1 - 0.0
19/01:15am 20.5 19.7 17.9 85 1.6 SE 19 20 10 11 1018.2 - 0.0
19/01:00am 20.6 19.4 17.6 83 1.8 SE 20 24 11 13 1018.3 - 0.0
19/12:59am 20.7 19.7 17.9 84 1.7 SE 20 24 11 13 1018.3 - 0.0
19/12:30am 20.8 19.7 17.8 83 1.9 SSE 20 24 11 13 1018.5 - 0.0
19/12:00am 21.0 20.2 18.4 85 1.6 SSE 20 24 11 13 1018.6 1018.4 0.0
 
Date/Time
EST
Temp
°C
App
Temp
°C
Dew
Point
Rel
Hum
%
Delta-T
°C
Wind Press
QNH
hPa
Press
MSL
hPa
Rain
since 9 am
mm
Dir
 
Spd
km/h
Gust
km/h
Spd
kts
Gust
kts
18/11:41pm 21.0 19.6 18.0 83 1.9 SE 22 26 12 14 1018.8 - 0.0
18/11:30pm 21.0 19.6 18.0 83 1.9 SE 22 26 12 14 1018.8 - 0.0
18/11:00pm 21.1 19.8 18.1 83 1.9 SSE 22 28 12 15 1019.0 - 0.0
18/10:30pm 21.1 20.5 18.5 85 1.6 SSE 19 22 10 12 1018.9 - 0.0
18/10:08pm 21.0 20.4 18.4 85 1.6 SSE 19 24 10 13 1018.8 - 0.0
18/10:00pm 21.0 20.5 18.6 86 1.5 SE 19 22 10 12 1018.7 - 0.0
18/09:30pm 20.9 20.4 18.7 87 1.4 SE 19 20 10 11 1018.6 - 0.0
18/09:00pm 21.0 20.5 18.6 86 1.5 SE 19 20 10 11 1018.3 1018.1 0.0
18/08:51pm 20.9 20.7 18.5 86 1.5 SE 17 20 9 11 1018.3 - 0.0
18/08:30pm 21.2 20.8 18.8 86 1.5 SE 19 20 10 11 1018.3 - 0.0
18/08:00pm 21.3 20.5 18.5 84 1.8 SE 20 24 11 13 1018.0 - 0.0
18/07:30pm 21.4 20.7 18.6 84 1.8 ESE 20 26 11 14 1017.8 - 0.0
18/07:20pm 21.5 20.7 18.5 83 1.9 ESE 20 24 11 13 1017.6 - 0.0
18/07:00pm 21.6 20.9 18.6 83 1.9 ESE 20 24 11 13 1017.4 - 0.0
18/06:55pm 21.5 20.8 18.7 84 1.8 ESE 20 24 11 13 1017.4 - 0.0
18/06:30pm 21.6 20.9 18.6 83 1.9 ESE 20 24 11 13 1017.2 - 0.0
18/06:12pm 21.6 20.9 18.6 83 1.9 ESE 20 24 11 13 1017.1 - 0.0
18/06:00pm 21.5 20.8 18.7 84 1.8 ESE 20 24 11 13 1016.9 1016.7 0.0
18/05:30pm 21.9 20.3 16.6 72 3.2 E 20 24 11 13 1016.6 - 0.0
18/05:00pm 22.1 19.4 16.6 71 3.4 ESE 26 30 14 16 1016.2 - 0.0
18/04:30pm 22.3 19.3 15.9 67 3.9 E 26 30 14 16 1016.0 - 0.0
18/04:00pm 22.5 18.2 15.4 64 4.3 E 32 35 17 19 1015.8 - 0.0
18/03:30pm 22.9 19.6 15.0 61 4.7 E 26 30 14 16 1015.8 - 0.0
18/03:00pm 23.1 18.8 13.3 54 5.7 E 28 33 15 18 1015.9 1015.7 0.0
18/02:30pm 23.4 18.7 13.3 53 5.9 E 30 32 16 17 1016.0 - 0.0
18/02:00pm 23.8 19.4 11.8 47 6.8 E 26 32 14 17 1016.4 - 0.0
18/01:30pm 24.3 20.5 13.5 51 6.3 ESE 26 28 14 15 1016.8 - 0.0
18/01:00pm 24.6 21.3 15.0 55 5.8 SE 26 32 14 17 1017.3 - 0.0
18/12:30pm 25.7 22.8 16.0 55 5.9 SE 26 30 14 16 1017.6 - 0.0
18/12:00pm 24.1 21.3 16.4 62 4.7 SSE 26 30 14 16 1017.9 1017.7 0.0
18/11:30am 24.0 21.8 16.0 61 4.9 SSE 22 24 12 13 1018.2 - 0.0
18/11:00am 24.9 23.3 16.1 58 5.4 SSE 19 22 10 12 1018.6 - 0.0
18/10:30am 25.4 24.0 16.5 58 5.5 SSE 19 20 10 11 1018.7 - 0.0
18/10:00am 25.3 25.6 15.0 53 6.2 NNW 7 13 4 7 1018.6 - 0.0
18/09:30am 24.8 25.5 17.0 62 4.8 NW 9 11 5 6 1018.7 - 0.0
18/09:00am 23.3 23.3 18.2 73 3.2 NNW 15 19 8 10 1018.7 1018.5 0.0
18/08:30am 22.8 23.0 18.6 77 2.7 NNW 15 20 8 11 1018.8 - 0.0
18/08:00am 22.1 21.3 18.1 78 2.5 NNW 19 24 10 13 1018.3 - 0.0
18/07:30am 21.4 20.7 18.2 82 2.0 NNW 19 24 10 13 1018.2 - 0.0
18/07:00am 21.1 20.6 18.7 86 1.5 NNW 19 24 10 13 1017.9 - 0.0
18/06:30am 20.7 20.3 18.8 89 1.2 NNW 19 22 10 12 1017.6 - 0.0
18/06:00am 20.5 20.3 18.6 89 1.2 NNW 17 22 9 12 1017.1 1016.9 0.0
18/05:30am 20.4 20.6 18.5 89 1.2 NNW 15 19 8 10 1016.9 - 0.0
18/05:00am 20.6 20.1 18.7 89 1.2 NW 19 22 10 12 1016.6 - 0.0
18/04:30am 20.6 20.4 18.5 88 1.3 NW 17 22 9 12 1016.2 - 0.0
18/04:00am 20.3 20.2 18.8 91 0.9 WNW 17 20 9 11 1016.1 - 0.0
18/03:30am 20.3 20.1 18.6 90 1.1 W 17 20 9 11 1016.3 - 0.0
18/03:00am 20.5 20.1 18.8 90 1.1 WNW 19 22 10 12 1016.2 1016.0 0.0
18/02:30am 20.9 20.5 18.8 88 1.3 WNW 19 24 10 13 1016.5 - 0.0

Other Formats:

Comma delimited format used in spreadsheet applications
http://www.bom.gov.au/fwo/IDQ60801/IDQ60801.94368.axf

JavaScript Object Notation format (JSON) in row-major order
http://www.bom.gov.au/fwo/IDQ60801/IDQ60801.94368.json